Time;durP1;ratioP1;P1;durP2;ratioP2;P2;SDS_P1;SDS_P2;PMS_P1;PMS_P2;Temp;Humidity;BMP_temperature;BMP_pressure;BME280_temperature;BME280_humidity;BME280_pressure;Samples;Min_cycle;Max_cycle;Signal;HPM_P1;HPM_P2
2023/03/28 00:02:26;;;;;;;7.87;3.95;;;;;;;23.94;36.66;99253.97;4351418;32;34019;-51
2023/03/28 00:04:53;;;;;;;7.95;3.72;;;;;;;23.94;36.66;99264.88;4339412;33;33548;-51
2023/03/28 00:07:21;;;;;;;7.47;3.42;;;;;;;23.92;36.68;99269.72;4360326;32;33470;-49
2023/03/28 00:09:49;;;;;;;7.07;3.83;;;;;;;23.92;36.68;99261.56;4362429;32;34044;-51
2023/03/28 00:12:16;;;;;;;6.43;3.55;;;;;;;23.92;36.71;99275.19;4359078;32;33663;-61
2023/03/28 00:14:45;;;;;;;5.40;3.28;;;;;;;23.91;36.72;99281.69;4351357;32;32772;-52
2023/03/28 00:17:12;;;;;;;7.45;3.97;;;;;;;23.90;36.79;99280.88;4351797;32;33692;-54
2023/03/28 00:19:40;;;;;;;7.78;3.60;;;;;;;23.89;36.80;99284.69;4351101;32;34001;-51
2023/03/28 00:22:07;;;;;;;5.97;3.70;;;;;;;23.89;36.82;99281.12;4351264;32;33284;-52
2023/03/28 00:24:37;;;;;;;5.95;3.22;;;;;;;23.88;36.82;99284.94;4356162;32;33058;-51
2023/03/28 00:27:06;;;;;;;6.45;3.80;;;;;;;23.87;36.84;99283.25;4338935;32;33219;-56
2023/03/28 00:29:33;;;;;;;7.85;3.92;;;;;;;23.87;36.89;99289.53;4354750;32;33858;-63
2023/03/28 00:32:01;;;;;;;6.22;3.80;;;;;;;23.87;36.93;99291.44;4337332;32;33985;-58
2023/03/28 00:34:29;;;;;;;7.30;3.30;;;;;;;23.87;36.91;99289.53;4355803;32;33128;-59
2023/03/28 00:36:57;;;;;;;5.80;3.45;;;;;;;23.86;36.90;99304.22;4348574;32;32889;-58
2023/03/28 00:39:26;;;;;;;5.45;3.30;;;;;;;23.86;36.90;99303.41;4360767;32;34704;-62
2023/03/28 00:41:54;;;;;;;5.97;3.08;;;;;;;23.84;36.90;99302.81;4361976;32;34286;-58
2023/03/28 00:44:52;;;;;;;6.82;3.42;;;;;;;23.86;36.89;99315.13;4361750;32;33456;-51
2023/03/28 00:47:27;;;;;;;6.90;3.40;;;;;;;23.86;36.86;99312.41;4346114;32;33731;-59
2023/03/28 00:49:57;;;;;;;5.45;3.30;;;;;;;23.83;36.90;99323.81;4360823;32;34731;-59
2023/03/28 00:52:28;;;;;;;7.32;3.40;;;;;;;23.81;36.93;99320.47;4339415;32;35760;-52
2023/03/28 00:54:56;;;;;;;5.32;3.05;;;;;;;23.81;36.93;99331.37;4341229;32;33982;-49
2023/03/28 00:57:25;;;;;;;7.62;3.10;;;;;;;23.80;36.94;99340.63;4361962;32;33887;-56
2023/03/28 00:59:55;;;;;;;6.03;3.33;;;;;;;23.80;36.93;99345.25;4348883;32;34722;-49
2023/03/28 01:02:23;;;;;;;10.32;3.50;;;;;;;23.80;36.93;99343.34;4334725;33;33872;-53
2023/03/28 01:04:56;;;;;;;7.00;3.70;;;;;;;23.79;36.96;99343.59;4334095;33;33064;-51
2023/03/28 01:07:25;;;;;;;5.20;3.10;;;;;;;23.79;37.01;99343.59;4336461;32;34772;-55
2023/03/28 01:09:53;;;;;;;6.50;3.60;;;;;;;23.79;37.03;99352.59;4321533;33;32816;-53
2023/03/28 01:12:20;;;;;;;6.50;3.03;;;;;;;23.78;37.17;99350.94;4321894;33;33826;-64
2023/03/28 01:14:48;;;;;;;5.75;3.33;;;;;;;23.78;37.23;99356.38;4333842;33;34073;-58
2023/03/28 01:17:16;;;;;;;5.65;3.30;;;;;;;23.78;37.23;99361.84;4334076;33;34563;-58
2023/03/28 01:20:06;;;;;;;6.72;3.42;;;;;;;23.79;37.21;99357.22;4347053;32;33940;-56
2023/03/28 01:22:36;;;;;;;5.72;3.47;;;;;;;23.81;37.17;99363.22;4333477;33;32622;-57
2023/03/28 01:25:07;;;;;;;;;;;;;;;23.77;37.19;99365.59;4334020;33;32404;-54
2023/03/28 01:27:44;;;;;;;5.60;3.37;;;;;;;23.86;37.01;99366.06;4354385;32;34236;-58
2023/03/28 01:30:39;;;;;;;6.35;3.30;;;;;;;23.78;37.17;99371.88;4376918;32;33925;-59
2023/03/28 01:33:18;;;;;;;8.57;3.40;;;;;;;23.77;37.21;99372.94;4363434;32;34087;-54
2023/03/28 01:36:21;;;;;;;5.95;3.45;;;;;;;23.74;37.25;99373.44;4376681;32;33312;-61
2023/03/28 01:39:35;;;;;;;6.12;3.58;;;;;;;23.76;37.23;99382.19;4366932;32;33483;-56
2023/03/28 01:42:09;;;;;;;6.43;3.33;;;;;;;23.76;37.23;99390.38;4365023;32;33709;-50
2023/03/28 01:44:54;;;;;;;7.32;3.62;;;;;;;23.72;37.23;99392.72;4359474;32;32961;-50
2023/03/28 01:47:30;;;;;;;6.10;3.62;;;;;;;23.73;37.24;99391.66;4349414;32;33439;-49
2023/03/28 01:50:02;;;;;;;9.50;3.42;;;;;;;23.70;37.28;99404.94;4348334;32;34089;-53
2023/03/28 01:52:40;;;;;;;5.90;3.15;;;;;;;23.70;37.27;99405.78;4347378;32;33875;-61
2023/03/28 01:55:13;;;;;;;5.22;2.67;;;;;;;23.70;37.26;99400.31;4348601;32;34238;-53
2023/03/28 01:57:56;;;;;;;6.47;2.92;;;;;;;23.70;37.31;99407.69;4348392;32;33345;-51
2023/03/28 02:00:38;;;;;;;5.10;3.37;;;;;;;23.70;37.28;99407.69;4339088;32;34627;-49
2023/03/28 02:03:21;;;;;;;12.73;3.30;;;;;;;23.68;37.27;99403.28;4336181;32;35066;-60
2023/03/28 02:05:49;;;;;;;5.57;3.25;;;;;;;23.70;37.25;99410.41;4348784;32;33944;-62
2023/03/28 02:08:17;;;;;;;4.95;2.70;;;;;;;23.69;37.28;99425.91;4348146;32;33464;-49
2023/03/28 02:10:46;;;;;;;5.82;3.12;;;;;;;23.67;37.27;99428.84;4347854;32;32971;-55
2023/03/28 02:13:19;;;;;;;6.10;2.95;;;;;;;23.67;37.25;99431.59;4361776;32;34671;-54
2023/03/28 02:15:51;;;;;;;6.05;3.28;;;;;;;23.66;37.26;99432.66;4348389;32;33458;-59
2023/03/28 02:18:24;;;;;;;6.62;3.10;;;;;;;23.66;37.26;99434.56;4348404;32;32407;-51
2023/03/28 02:20:53;;;;;;;6.03;3.08;;;;;;;23.65;37.25;99435.63;4361669;32;33965;-66
2023/03/28 02:23:35;;;;;;;4.70;2.70;;;;;;;23.66;37.20;99437.28;4349284;32;34838;-54
2023/03/28 02:26:05;;;;;;;5.97;3.00;;;;;;;23.64;37.21;99436.66;4348193;32;34211;-51
2023/03/28 02:28:38;;;;;;;6.25;3.58;;;;;;;23.65;37.23;99439.16;4348562;32;33412;-50
2023/03/28 02:31:06;;;;;;;5.10;3.15;;;;;;;23.66;37.21;99437.28;4348707;32;34532;-52
2023/03/28 02:33:37;;;;;;;6.00;2.78;;;;;;;23.64;37.20;99442.97;4347872;32;33985;-56
2023/03/28 02:36:34;;;;;;;5.45;2.70;;;;;;;23.63;37.22;99446.69;4361336;32;34091;-55
2023/03/28 02:39:21;;;;;;;5.97;2.80;;;;;;;23.63;37.21;99449.44;4343912;32;34082;-54
2023/03/28 02:42:13;;;;;;;6.20;2.45;;;;;;;23.63;37.25;99446.69;4361095;32;34740;-62
2023/03/28 02:45:05;;;;;;;5.10;2.70;;;;;;;23.62;37.24;99445.06;4357205;32;34136;-56
2023/03/28 02:47:47;;;;;;;5.72;2.92;;;;;;;23.63;37.22;99454.88;4346701;33;34563;-54
2023/03/28 02:50:35;;;;;;;4.82;2.60;;;;;;;23.59;37.28;99455.59;4332845;33;34160;-49
2023/03/28 02:53:25;;;;;;;6.05;3.10;;;;;;;23.62;37.24;99464.12;4333033;33;34077;-51
2023/03/28 02:55:56;;;;;;;6.35;2.95;;;;;;;23.58;37.33;99473.00;4346463;33;33998;-54
2023/03/28 02:58:40;;;;;;;5.18;2.72;;;;;;;23.58;37.33;99473.00;4321500;33;34420;-54
2023/03/28 03:01:09;;;;;;;5.80;2.83;;;;;;;23.59;37.28;99486.38;4320964;33;32849;-60
2023/03/28 03:03:36;;;;;;;6.07;3.15;;;;;;;23.56;37.33;99491.47;4334090;33;33866;-54
2023/03/28 03:06:05;;;;;;;4.78;2.70;;;;;;;23.57;37.33;99495.84;4334542;33;33868;-54
2023/03/28 03:08:32;;;;;;;6.00;3.00;;;;;;;23.57;37.31;99504.03;4348179;32;34067;-55
2023/03/28 03:11:00;;;;;;;4.32;2.65;;;;;;;23.57;37.32;99506.75;4349660;32;34257;-58
2023/03/28 03:13:27;;;;;;;6.53;2.85;;;;;;;23.56;37.36;99503.19;4362648;32;34630;-55
2023/03/28 03:15:55;;;;;;;4.62;2.90;;;;;;;23.55;37.36;99512.44;4362961;32;34442;-58
2023/03/28 03:18:23;;;;;;;5.20;2.83;;;;;;;23.55;37.36;99515.16;4363042;32;33726;-57
2023/03/28 03:20:51;;;;;;;4.05;2.58;;;;;;;23.56;37.38;99519.53;4362529;32;33359;-49
2023/03/28 03:23:20;;;;;;;5.47;2.80;;;;;;;23.54;37.40;99527.09;4362668;32;33890;-54
2023/03/28 03:25:49;;;;;;;4.87;2.87;;;;;;;23.55;37.41;99527.91;4363010;32;33946;-48
2023/03/28 03:28:17;;;;;;;5.43;2.92;;;;;;;23.55;37.40;99525.19;4362636;32;34132;-58
2023/03/28 03:30:45;;;;;;;5.22;3.10;;;;;;;23.55;37.44;99530.63;4362721;32;34134;-55
2023/03/28 03:33:14;;;;;;;4.15;2.55;;;;;;;23.54;37.42;99538.00;4362920;32;33539;-57
2023/03/28 03:35:46;;;;;;;4.78;2.50;;;;;;;23.55;37.41;99539.66;4349589;32;34456;-51
2023/03/28 03:38:14;;;;;;;4.65;3.00;;;;;;;23.55;37.39;99539.66;4362921;32;33766;-53
2023/03/28 03:40:42;;;;;;;5.60;2.83;;;;;;;23.54;37.43;99534.44;4362570;32;33244;-52
2023/03/28 03:43:10;;;;;;;5.40;3.15;;;;;;;23.53;37.47;99547.22;4362772;32;33458;-54
2023/03/28 03:45:39;;;;;;;7.60;2.78;;;;;;;23.54;37.47;99540.72;4339545;33;34993;-51
2023/03/28 03:48:07;;;;;;;4.90;2.60;;;;;;;23.53;37.46;99549.13;4347818;33;33970;-54
2023/03/28 03:50:35;;;;;;;4.82;2.58;;;;;;;23.52;37.49;99555.62;4348000;33;33942;-52
2023/03/28 03:53:04;;;;;;;5.00;2.70;;;;;;;23.52;37.49;99552.91;4347827;33;33266;-52
2023/03/28 03:55:32;;;;;;;5.35;2.97;;;;;;;23.50;37.48;99558.59;4347746;33;33813;-53
2023/03/28 03:58:01;;;;;;;6.37;2.92;;;;;;;23.52;37.49;99561.09;4347637;33;33411;-49
2023/03/28 04:00:30;;;;;;;6.37;2.80;;;;;;;23.52;37.53;99556.47;4347890;33;33404;-50
2023/03/28 04:02:58;;;;;;;5.78;2.85;;;;;;;23.52;37.52;99566.53;4347663;33;34580;-51
2023/03/28 04:05:26;;;;;;;5.53;2.37;;;;;;;23.51;37.51;99568.44;4334637;33;34672;-52
2023/03/28 04:07:59;;;;;;;4.85;2.80;;;;;;;23.50;37.51;99569.50;4351189;32;34622;-57
2023/03/28 04:10:27;;;;;;;6.03;2.67;;;;;;;23.49;37.53;99586.03;4362315;32;33079;-52
2023/03/28 04:12:55;;;;;;;5.43;2.17;;;;;;;23.49;37.53;99580.59;4362673;32;34583;-49
2023/03/28 04:15:22;;;;;;;5.10;2.35;;;;;;;23.49;37.53;99583.31;4361973;32;34782;-55
2023/03/28 04:17:55;;;;;;;5.18;2.85;;;;;;;23.48;37.52;99593.38;4362204;32;33739;-66
2023/03/28 04:20:24;;;;;;;5.95;2.72;;;;;;;23.49;37.50;99592.31;4353213;32;33557;-66
2023/03/28 04:22:55;;;;;;;7.32;2.80;;;;;;;23.48;37.54;99598.84;4347370;33;33960;-66
2023/03/28 04:25:23;;;;;;;5.72;2.67;;;;;;;23.48;37.58;99609.72;4347694;33;35204;-59
2023/03/28 04:27:53;;;;;;;5.62;2.95;;;;;;;23.47;37.59;99599.06;4347652;33;33750;-54
2023/03/28 04:30:23;;;;;;;5.75;2.62;;;;;;;23.47;37.59;99607.25;4347466;33;32568;-59
2023/03/28 04:32:53;;;;;;;5.55;2.45;;;;;;;23.47;37.63;99607.25;4347405;33;33726;-63
2023/03/28 04:35:22;;;;;;;4.47;2.42;;;;;;;23.47;37.59;99616.25;4347651;33;34969;-63
2023/03/28 04:37:52;;;;;;;4.65;2.47;;;;;;;23.48;37.57;99617.91;4334160;33;33676;-63
2023/03/28 04:40:20;;;;;;;4.57;2.60;;;;;;;23.48;37.59;99617.91;4347685;33;33541;-49
2023/03/28 04:42:49;;;;;;;6.93;2.70;;;;;;;23.49;37.61;99626.91;4347361;33;33580;-55
2023/03/28 04:45:17;;;;;;;5.82;2.58;;;;;;;23.48;37.66;99630.69;4347184;33;34720;-51
2023/03/28 04:47:46;;;;;;;5.07;2.58;;;;;;;23.47;37.60;99627.13;4347523;33;34475;-69
2023/03/28 04:50:15;;;;;;;5.80;2.75;;;;;;;23.47;37.41;99635.31;4333424;33;32275;-70
2023/03/28 04:52:42;;;;;;;4.05;2.20;;;;;;;23.46;37.12;99638.28;4347174;33;34651;-51
2023/03/28 04:55:10;;;;;;;7.30;2.37;;;;;;;23.46;36.86;99641.00;4347474;33;33900;-51
2023/03/28 04:57:39;;;;;;;9.45;2.50;;;;;;;23.41;36.69;99634.34;4347441;32;34798;-50
2023/03/28 05:00:11;;;;;;;4.55;2.20;;;;;;;23.41;36.60;99639.78;4347334;33;32966;-50
2023/03/28 05:02:43;;;;;;;4.37;2.35;;;;;;;23.39;36.49;99632.91;4347368;33;32803;-60
2023/03/28 05:05:11;;;;;;;5.37;2.58;;;;;;;23.38;36.41;99636.69;4347282;33;34207;-54
2023/03/28 05:07:38;;;;;;;5.40;2.15;;;;;;;23.36;36.32;99638.78;4346918;33;34023;-59
2023/03/28 05:10:07;;;;;;;7.62;2.70;;;;;;;23.35;36.27;99637.13;4347457;33;34359;-61
2023/03/28 05:12:35;;;;;;;7.75;2.30;;;;;;;23.33;36.27;99645.53;4347110;33;34146;-63
2023/03/28 05:15:04;;;;;;;6.53;2.50;;;;;;;23.34;36.31;99643.66;4347366;33;34467;-65
2023/03/28 05:17:32;;;;;;;10.75;2.40;;;;;;;23.32;36.32;99646.59;4345783;33;33960;-51
2023/03/28 05:20:00;;;;;;;8.00;2.50;;;;;;;23.34;36.30;99643.66;4345310;33;33239;-52
2023/03/28 05:22:28;;;;;;;10.82;3.22;;;;;;;23.33;36.30;99650.16;4345541;33;33375;-49
2023/03/28 05:24:57;;;;;;;6.43;2.55;;;;;;;23.31;36.31;99650.37;4343874;33;33794;-63
2023/03/28 05:27:25;;;;;;;8.15;2.65;;;;;;;23.32;36.28;99660.22;4345070;33;33596;-62
2023/03/28 05:29:53;;;;;;;10.45;2.28;;;;;;;23.31;36.30;99663.16;4345728;33;34042;-53
2023/03/28 05:32:21;;;;;;;13.27;2.50;;;;;;;23.30;36.30;99662.31;4346044;33;33576;-64
2023/03/28 05:34:49;;;;;;;5.00;2.55;;;;;;;23.29;36.29;99665.28;4346792;33;33953;-52
2023/03/28 05:37:16;;;;;;;11.40;2.53;;;;;;;23.29;36.29;99670.72;4347290;33;33673;-67
2023/03/28 05:39:44;;;;;;;11.12;2.78;;;;;;;23.30;36.29;99666.94;4347009;33;32850;-58
2023/03/28 05:42:12;;;;;;;5.32;2.12;;;;;;;23.28;36.26;99669.06;4347295;33;33592;-65
2023/03/28 05:44:39;;;;;;;5.40;2.40;;;;;;;23.28;36.29;99664.47;4346374;33;33565;-53
2023/03/28 05:47:08;;;;;;;5.12;2.45;;;;;;;23.28;36.27;99680.78;4346984;33;33942;-49
2023/03/28 05:49:35;;;;;;;6.80;2.35;;;;;;;23.28;36.27;99685.41;4333824;33;33356;-60
2023/03/28 05:52:03;;;;;;;5.75;2.10;;;;;;;23.27;36.27;99678.28;4346827;33;33556;-65
2023/03/28 05:54:31;;;;;;;8.85;2.40;;;;;;;23.27;36.26;99681.84;4346737;33;34091;-52
2023/03/28 05:56:59;;;;;;;5.60;2.28;;;;;;;23.27;36.26;99686.44;4347055;33;33843;-60
2023/03/28 05:59:26;;;;;;;6.25;1.98;;;;;;;23.26;36.27;99690.22;4347014;33;33287;-57
2023/03/28 06:01:54;;;;;;;5.80;2.42;;;;;;;23.26;36.26;99687.50;4346759;33;33980;-52
2023/03/28 06:04:22;;;;;;;8.70;2.47;;;;;;;23.26;36.26;99690.22;4346728;33;34033;-66
2023/03/28 06:06:50;;;;;;;6.90;2.40;;;;;;;23.25;36.28;99697.56;4346699;33;34681;-54
2023/03/28 06:09:18;;;;;;;5.18;2.47;;;;;;;23.24;36.28;99700.53;4346932;33;32920;-55
2023/03/28 06:11:47;;;;;;;4.43;2.22;;;;;;;23.23;36.29;99702.44;4346829;33;33833;-64
2023/03/28 06:14:15;;;;;;;5.65;2.05;;;;;;;23.23;36.27;99705.16;4346823;33;34829;-64
2023/03/28 06:16:43;;;;;;;5.85;2.70;;;;;;;23.22;36.28;99708.06;4346585;33;33866;-57
2023/03/28 06:19:11;;;;;;;4.70;2.17;;;;;;;23.22;36.28;99710.81;4333532;33;33119;-59
2023/03/28 06:21:47;;;;;;;5.95;2.10;;;;;;;23.22;36.26;99718.97;4346501;33;33920;-51
2023/03/28 06:24:15;;;;;;;5.90;2.35;;;;;;;23.22;36.26;99725.25;4346668;33;34051;-57
2023/03/28 06:26:43;;;;;;;5.15;2.50;;;;;;;23.21;36.27;99733.63;4346944;33;34482;-54
2023/03/28 06:29:11;;;;;;;4.68;2.37;;;;;;;23.21;36.25;99729.03;4346892;33;32270;-62
2023/03/28 06:31:39;;;;;;;4.35;2.05;;;;;;;23.21;36.26;99737.19;4321004;33;33273;-61
2023/03/28 06:34:07;;;;;;;4.22;2.00;;;;;;;23.21;36.24;99734.47;4346580;33;34050;-62
2023/03/28 06:36:35;;;;;;;5.32;2.03;;;;;;;23.20;36.24;99749.16;4346458;33;34194;-53
2023/03/28 06:39:03;;;;;;;3.72;2.00;;;;;;;23.20;36.26;99753.75;4320555;33;33313;-65
2023/03/28 06:41:30;;;;;;;5.50;2.30;;;;;;;23.17;36.28;99753.16;4333211;33;33961;-56
2023/03/28 06:43:58;;;;;;;3.65;1.80;;;;;;;23.18;36.27;99751.28;4332856;33;33920;-60
2023/03/28 06:46:31;;;;;;;4.12;2.05;;;;;;;23.17;36.28;99763.19;4346552;33;34558;-60
2023/03/28 06:48:59;;;;;;;4.87;2.00;;;;;;;23.17;36.27;99765.91;4346487;33;33219;-56
2023/03/28 06:51:30;;;;;;;4.62;2.05;;;;;;;23.17;36.25;99768.62;4333500;33;32321;-56
2023/03/28 06:53:57;;;;;;;5.32;2.53;;;;;;;23.15;36.25;99766.16;4346698;33;34470;-54
2023/03/28 06:56:26;;;;;;;6.00;2.10;;;;;;;23.15;36.25;99776.22;4333436;33;33772;-58
2023/03/28 06:58:54;;;;;;;4.50;2.30;;;;;;;23.16;36.25;99775.16;4346373;32;33109;-67
2023/03/28 07:01:22;;;;;;;4.03;2.08;;;;;;;23.15;36.24;99766.16;4346552;33;34661;-59
2023/03/28 07:03:50;;;;;;;4.70;2.35;;;;;;;23.16;36.24;99788.75;4346332;33;33753;-61
2023/03/28 07:06:19;;;;;;;8.18;2.55;;;;;;;23.14;36.24;99771.84;4346473;33;33723;-50
2023/03/28 07:08:47;;;;;;;5.20;2.30;;;;;;;23.15;36.22;99784.38;4346357;33;33166;-66
2023/03/28 07:11:15;;;;;;;4.65;2.42;;;;;;;23.14;36.24;99777.28;4346070;33;34595;-58
2023/03/28 07:13:44;;;;;;;4.95;2.05;;;;;;;23.14;36.23;99790.88;4346372;33;34749;-53
2023/03/28 07:16:12;;;;;;;4.25;1.90;;;;;;;23.13;36.24;99790.06;4346486;33;34236;-65
2023/03/28 07:18:41;;;;;;;5.97;2.15;;;;;;;23.12;36.25;99788.37;4345874;33;33480;-57
2023/03/28 07:21:14;;;;;;;3.92;2.00;;;;;;;23.12;36.23;99788.37;4332666;33;33862;-62
2023/03/28 07:23:43;;;;;;;7.62;2.00;;;;;;;23.11;36.26;99803.03;4346080;33;34741;-51
2023/03/28 07:26:12;;;;;;;3.95;1.85;;;;;;;23.11;36.24;99805.75;4332936;33;34076;-56
2023/03/28 07:28:40;;;;;;;4.25;2.00;;;;;;;23.11;36.24;99805.75;4346070;33;33161;-61
2023/03/28 07:31:07;;;;;;;3.65;2.00;;;;;;;23.10;36.25;99814.16;4345978;33;33541;-50
2023/03/28 07:33:35;;;;;;;5.00;1.87;;;;;;;23.10;36.24;99811.44;4332434;33;33713;-58
2023/03/28 07:36:23;;;;;;;5.75;2.20;;;;;;;23.10;36.24;99811.44;4323909;32;33542;-64
2023/03/28 07:38:51;;;;;;;3.67;2.00;;;;;;;23.13;36.20;99816.44;4344576;33;34431;-58
2023/03/28 07:41:21;;;;;;;3.87;2.03;;;;;;;23.10;36.20;99811.44;4332410;33;34635;-50
2023/03/28 07:43:49;;;;;;;4.03;2.00;;;;;;;23.08;36.24;99817.13;4345650;33;33732;-60
2023/03/28 07:46:16;;;;;;;3.25;1.90;;;;;;;23.09;36.20;99823.38;4346007;32;33680;-59
2023/03/28 07:48:45;;;;;;;4.12;1.90;;;;;;;23.07;36.24;99809.97;4346946;32;33290;-58
2023/03/28 07:51:13;;;;;;;3.00;1.80;;;;;;;23.08;36.21;99817.13;4362419;32;34650;-54
2023/03/28 07:53:41;;;;;;;3.60;1.90;;;;;;;23.06;36.24;99816.50;4349146;32;35015;-55
2023/03/28 07:56:12;;;;;;;3.70;2.00;;;;;;;23.06;36.24;99816.50;4348665;32;32749;-61
2023/03/28 07:58:42;;;;;;;4.20;1.77;;;;;;;23.06;36.24;99816.50;4349793;32;33700;-54
2023/03/28 08:01:11;;;;;;;3.62;2.10;;;;;;;23.06;36.22;99808.31;4362476;32;34078;-57
2023/03/28 08:03:39;;;;;;;4.97;1.98;;;;;;;23.05;36.24;99809.38;4362722;32;34367;-62
2023/03/28 08:06:08;;;;;;;3.37;1.73;;;;;;;23.06;36.22;99802.06;4362193;32;33914;-52
2023/03/28 08:08:56;;;;;;;3.00;1.50;;;;;;;23.04;36.24;99806.91;4362404;32;33526;-51
2023/03/28 08:11:26;;;;;;;4.62;2.20;;;;;;;23.06;36.21;99791.16;4362478;32;33740;-61
2023/03/28 08:13:53;;;;;;;3.85;1.80;;;;;;;23.05;36.20;99801.22;4362364;32;33890;-53
2023/03/28 08:16:21;;;;;;;4.82;1.80;;;;;;;23.04;36.23;99799.56;4362409;32;33666;-67
2023/03/28 08:18:50;;;;;;;3.80;2.10;;;;;;;23.03;36.23;99797.88;4362427;32;34055;-51
2023/03/28 08:21:38;;;;;;;3.37;1.95;;;;;;;23.03;36.23;99803.31;4362480;32;33556;-53
2023/03/28 08:24:06;;;;;;;3.83;1.90;;;;;;;23.03;36.20;99792.44;4362236;32;33908;-51
2023/03/28 08:26:35;;;;;;;3.87;1.75;;;;;;;23.02;36.23;99801.66;4357228;32;34174;-53
2023/03/28 08:29:04;;;;;;;4.72;2.00;;;;;;;23.00;36.24;99795.63;4356685;32;33850;-51
2023/03/28 08:31:31;;;;;;;2.40;1.62;;;;;;;23.01;36.23;99797.28;4347593;32;34675;-54
2023/03/28 08:34:00;;;;;;;3.63;1.83;;;;;;;23.00;36.23;99792.91;4348662;32;34007;-56
2023/03/28 08:36:30;;;;;;;3.47;1.92;;;;;;;23.02;36.21;99788.06;4349166;32;34486;-49
2023/03/28 08:38:59;;;;;;;4.00;1.90;;;;;;;23.02;36.21;99785.34;4362536;32;33869;-51
2023/03/28 08:41:58;;;;;;;4.30;2.15;;;;;;;23.02;36.21;99795.37;4362185;32;33963;-58
2023/03/28 08:44:30;;;;;;;3.47;1.70;;;;;;;23.03;36.19;99799.78;4333680;32;33983;-55
2023/03/28 08:47:09;;;;;;;2.90;1.90;;;;;;;23.00;36.21;99792.91;4350394;32;34519;-54
2023/03/28 08:49:45;;;;;;;3.93;1.70;;;;;;;22.99;36.23;99796.69;4352645;32;33375;-56
2023/03/28 08:52:16;;;;;;;2.85;1.77;;;;;;;23.01;36.20;99780.13;4354292;32;33613;-57
2023/03/28 08:54:46;;;;;;;6.15;2.20;;;;;;;22.99;36.23;99779.50;4362420;32;34709;-60
2023/03/28 08:57:18;;;;;;;4.40;2.15;;;;;;;22.99;36.23;99771.34;4336989;32;34632;-56
2023/03/28 08:59:52;;;;;;;3.92;1.87;;;;;;;22.98;36.24;99770.50;4348731;32;33105;-52
2023/03/28 09:02:21;;;;;;;4.53;1.92;;;;;;;22.98;36.23;99797.72;4351297;32;33060;-54
2023/03/28 09:04:50;;;;;;;2.90;1.60;;;;;;;22.98;36.23;99791.44;4376928;32;33996;-56
2023/03/28 09:07:37;;;;;;;3.42;2.00;;;;;;;22.98;36.21;99797.72;4351524;32;33546;-50
2023/03/28 09:10:28;;;;;;;4.05;2.03;;;;;;;22.99;36.20;99793.97;4363435;32;33420;-49
2023/03/28 09:13:15;;;;;;;2.58;1.50;;;;;;;22.98;36.18;99795.00;4351864;32;33468;-50
2023/03/28 09:15:54;;;;;;;3.00;1.58;;;;;;;22.97;36.21;99785.19;4357029;32;34152;-50
2023/03/28 09:54:07;;;;;;;2.83;1.30;;;;;;;23.08;33.94;99799.94;5176655;27;20093;31
2023/03/28 09:56:39;;;;;;;3.72;1.90;;;;;;;23.19;33.99;99798.38;4359418;32;33762;-55
2023/03/28 09:59:20;;;;;;;9.68;1.90;;;;;;;23.25;34.02;99794.75;4337262;32;33386;-57
2023/03/28 10:01:49;;;;;;;3.78;1.70;;;;;;;23.33;34.00;99792.56;4348101;32;34406;-51
2023/03/28 10:04:31;;;;;;;3.90;1.70;;;;;;;23.38;34.01;99792.72;4356359;32;33362;-52
2023/03/28 10:07:10;;;;;;;4.70;1.55;;;;;;;23.43;34.01;99776.53;4337203;32;34870;-50
2023/03/28 10:09:55;;;;;;;3.62;1.58;;;;;;;23.50;34.00;99786.50;4360463;32;33170;-54
2023/03/28 10:12:36;;;;;;;3.20;1.40;;;;;;;23.54;33.98;99796.72;4360879;32;34327;-61
2023/03/28 10:15:07;;;;;;;4.10;1.65;;;;;;;23.55;33.98;99795.69;4349618;32;33917;-53
2023/03/28 10:17:36;;;;;;;4.45;1.80;;;;;;;23.58;33.97;99781.59;4324415;32;34044;-53
2023/03/28 10:20:20;;;;;;;2.95;1.33;;;;;;;23.61;33.95;99772.97;4349053;32;33551;-55
2023/03/28 10:22:50;;;;;;;3.10;1.30;;;;;;;23.64;33.94;99771.69;4348119;32;32567;-55
2023/03/28 10:25:31;;;;;;;4.15;1.75;;;;;;;23.64;33.96;99785.31;4348707;32;34403;-53
2023/03/28 10:27:59;;;;;;;3.58;1.80;;;;;;;23.65;33.94;99781.56;4337334;32;32767;-54
2023/03/28 10:30:28;;;;;;;4.28;1.73;;;;;;;23.64;33.93;99788.91;4360327;32;33056;-58
2023/03/28 10:33:08;;;;;;;3.85;1.42;;;;;;;23.66;33.95;99783.22;4348168;32;32790;-53
2023/03/28 10:35:40;;;;;;;3.28;1.27;;;;;;;23.66;33.96;99786.75;4360134;32;33785;-53
2023/03/28 10:38:15;;;;;;;3.20;1.40;;;;;;;23.65;33.98;99812.34;4357075;32;33570;-54
2023/03/28 10:40:52;;;;;;;5.80;1.60;;;;;;;23.64;34.00;99788.91;4326893;33;32552;-51
2023/03/28 10:43:20;;;;;;;3.78;1.50;;;;;;;23.66;34.00;99794.09;4333980;32;33946;-53
2023/03/28 10:45:49;;;;;;;2.05;1.30;;;;;;;23.65;34.03;99797.91;4348170;32;34751;-53
2023/03/28 10:48:21;;;;;;;4.03;1.55;;;;;;;23.64;34.09;99790.75;4344922;33;33571;-55
2023/03/28 10:50:51;;;;;;;3.62;1.50;;;;;;;23.62;34.13;99790.97;4321207;33;33533;-53
2023/03/28 10:53:35;;;;;;;3.65;1.60;;;;;;;23.61;34.15;99794.75;4343139;32;33060;-59
2023/03/28 10:56:40;;;;;;;3.22;1.35;;;;;;;23.62;34.17;99787.41;4322198;33;32939;-58
2023/03/28 10:59:30;;;;;;;1.90;1.20;;;;;;;23.61;34.20;99780.31;4333428;33;34446;-55
2023/03/28 11:02:16;;;;;;;4.53;1.55;;;;;;;23.58;34.24;99787.03;4340292;33;201791;-61
2023/03/28 11:04:54;;;;;;;2.97;1.35;;;;;;;23.56;34.30;99788.34;4343316;33;33921;-62
2023/03/28 11:07:34;;;;;;;4.05;1.60;;;;;;;23.54;34.33;99790.44;4330300;33;35052;-63
2023/03/28 11:10:10;;;;;;;;;;;;;;;23.52;34.36;99785.22;4331894;33;33820;-56
2023/03/28 11:12:56;;;;;;;4.68;1.70;;;;;;;23.58;34.26;99784.31;4357241;32;33373;-55
2023/03/28 11:15:28;;;;;;;3.80;1.58;;;;;;;23.52;34.39;99792.56;4359790;32;33774;-58
2023/03/28 11:18:02;;;;;;;2.53;1.30;;;;;;;23.47;34.47;99804.13;4347540;32;33080;-53
2023/03/28 11:20:34;;;;;;;2.40;1.25;;;;;;;23.45;34.50;99792.63;4359948;32;33786;-65
2023/03/28 11:23:24;;;;;;;3.40;1.50;;;;;;;23.44;34.57;99790.97;4359668;32;32943;-57
2023/03/28 11:26:01;;;;;;;2.12;1.17;;;;;;;23.44;34.56;99780.06;4361538;32;34287;-58
2023/03/28 11:29:04;;;;;;;4.25;1.42;;;;;;;23.39;34.62;99797.09;4362304;32;33078;-61
2023/03/28 11:31:40;;;;;;;4.72;1.70;;;;;;;23.40;34.62;99781.59;4345545;32;33530;-67
2023/03/28 11:34:11;;;;;;;2.50;1.23;;;;;;;23.39;34.65;99790.81;4335941;33;34288;-61
2023/03/28 11:36:47;;;;;;;3.03;1.62;;;;;;;23.37;34.68;99792.94;4347788;32;34619;-64
2023/03/28 11:39:33;;;;;;;6.80;1.90;;;;;;;23.36;34.71;99804.88;4334938;33;34108;-66
2023/03/28 11:42:04;;;;;;;6.20;1.62;;;;;;;23.37;34.73;99799.22;4334271;33;33905;-62
2023/03/28 11:44:34;;;;;;;4.25;1.60;;;;;;;23.34;34.78;99799.66;4334574;32;33535;-64
2023/03/28 11:47:10;;;;;;;9.32;1.58;;;;;;;23.35;34.79;99801.31;4319713;33;33983;-58
2023/03/28 11:50:05;;;;;;;3.95;1.40;;;;;;;23.36;34.78;99791.25;4313678;33;33698;-60
2023/03/28 11:52:39;;;;;;;8.38;2.00;;;;;;;23.37;34.77;99792.94;4325656;33;34740;-53
2023/03/28 11:55:15;;;;;;;7.62;1.92;;;;;;;23.35;34.81;99795.03;4334349;33;33519;-53
2023/03/28 11:57:49;;;;;;;8.43;1.92;;;;;;;23.34;34.81;99788.78;4347507;33;33457;-55
2023/03/28 12:00:31;;;;;;;10.63;1.85;;;;;;;23.35;34.82;99784.16;4347904;32;34664;-55
2023/03/28 12:03:22;;;;;;;4.57;1.35;;;;;;;23.34;34.82;99796.13;4348024;32;33612;-55
2023/03/28 12:06:03;;;;;;;10.65;1.87;;;;;;;23.35;34.80;99797.78;4329478;33;33246;-52
2023/03/28 12:08:56;;;;;;;4.70;1.70;;;;;;;23.33;34.83;99794.44;4309156;33;33460;-53
2023/03/28 12:11:32;;;;;;;4.45;1.45;;;;;;;23.34;34.82;99790.66;4321862;33;34006;-60
2023/03/28 12:14:32;;;;;;;8.73;1.85;;;;;;;23.31;34.83;99778.31;4311919;33;33843;-61
2023/03/28 12:17:02;;;;;;;3.12;1.45;;;;;;;23.32;34.81;99782.75;4311991;33;33376;-58
2023/03/28 12:19:35;;;;;;;6.22;2.12;;;;;;;23.28;34.81;99769.81;4320297;33;33553;-56
2023/03/28 12:22:25;;;;;;;5.62;1.80;;;;;;;23.27;34.83;99789.88;4322614;33;33607;-56
2023/03/28 12:25:04;;;;;;;4.87;1.50;;;;;;;23.28;34.80;99797.84;4322926;33;34140;-55
2023/03/28 12:27:48;;;;;;;5.35;1.67;;;;;;;23.27;34.80;99781.72;4323221;33;33551;-55
2023/03/28 12:30:29;;;;;;;7.70;1.60;;;;;;;23.26;34.79;99780.06;4322539;33;32857;-61
2023/03/28 12:33:17;;;;;;;8.80;2.25;;;;;;;23.25;34.78;99795.56;4322524;33;34391;-57
2023/03/28 12:35:48;;;;;;;4.95;1.65;;;;;;;23.25;34.77;99792.03;4322206;32;34667;-55
2023/03/28 12:38:34;;;;;;;6.57;1.55;;;;;;;23.21;34.78;99788.09;4347645;33;34424;-60